Time;durP1;ratioP1;P1;durP2;ratioP2;P2;SDS_P1;SDS_P2;PMS_P1;PMS_P2;Temp;Humidity;BMP_temperature;BMP_pressure;BME280_temperature;BME280_humidity;BME280_pressure;Samples;Min_cycle;Max_cycle;Signal;HPM_P1;HPM_P2
2023/02/28 00:00:54;;;;;;;297.60;41.67;;;;;;;;;;5051229;28;20029;-40
2023/02/28 00:03:21;;;;;;;266.10;32.60;;;;;;;;;;5051160;28;20037;-42
2023/02/28 00:05:48;;;;;;;194.27;26.80;;;;;;;;;;5051870;28;20032;-42
2023/02/28 00:08:16;;;;;;;225.25;27.70;;;;;;;;;;5050686;28;20051;-39
2023/02/28 00:10:43;;;;;;;178.43;23.45;;;;;;;;;;5050930;28;20021;-42
2023/02/28 00:13:10;;;;;;;169.57;22.00;;;;;;;;;;5051574;28;20100;-39
2023/02/28 00:15:37;;;;;;;138.38;19.70;;;;;;;;;;5051682;28;20466;-44
2023/02/28 00:18:04;;;;;;;137.52;17.40;;;;;;;;;;5051133;28;20504;-40
2023/02/28 00:20:31;;;;;;;113.13;15.32;;;;;;;;;;5033002;28;20021;-42
2023/02/28 00:22:58;;;;;;;152.23;17.02;;;;;;;;;;5049836;28;20044;-42
2023/02/28 00:25:26;;;;;;;143.32;16.08;;;;;;;;;;5050701;28;20025;-45
2023/02/28 00:27:53;;;;;;;126.07;16.17;;;;;;;;;;5050520;28;20021;-40
2023/02/28 00:30:22;;;;;;;114.85;15.38;;;;;;;;;;5050097;28;20032;-39
2023/02/28 00:32:49;;;;;;;83.88;13.25;;;;;;;;;;5049955;28;20045;-42
2023/02/28 00:35:16;;;;;;;126.72;16.27;;;;;;;;;;5050427;28;20025;-39
2023/02/28 00:37:43;;;;;;;82.97;11.77;;;;;;;;;;5049974;28;20028;-39
2023/02/28 00:40:11;;;;;;;67.20;10.32;;;;;;;;;;5047844;28;20024;-39
2023/02/28 00:42:39;;;;;;;74.63;9.30;;;;;;;;;;5050894;28;20039;-41
2023/02/28 00:45:06;;;;;;;62.90;9.48;;;;;;;;;;5050668;28;20037;-40
2023/02/28 00:47:33;;;;;;;54.35;8.75;;;;;;;;;;5050410;28;20033;-39
2023/02/28 00:50:00;;;;;;;74.43;10.55;;;;;;;;;;5031335;28;20036;-40
2023/02/28 00:52:27;;;;;;;65.43;9.70;;;;;;;;;;5050380;28;20360;-40
2023/02/28 00:54:54;;;;;;;72.43;9.70;;;;;;;;;;5050911;28;20041;-42
2023/02/28 00:57:21;;;;;;;67.45;9.70;;;;;;;;;;5046032;28;20025;-42
2023/02/28 00:59:48;;;;;;;69.75;10.20;;;;;;;;;;5039325;28;20043;-42
2023/02/28 01:02:15;;;;;;;72.47;10.20;;;;;;;;;;5032519;28;20119;-39
2023/02/28 01:04:42;;;;;;;61.70;9.13;;;;;;;;;;5050653;28;20021;-42
2023/02/28 01:07:09;;;;;;;56.85;8.70;;;;;;;;;;5049718;28;20402;-42
2023/02/28 01:09:36;;;;;;;60.70;9.60;;;;;;;;;;5049198;28;20025;-42
2023/02/28 01:12:03;;;;;;;62.45;9.43;;;;;;;;;;5049253;28;20086;-41
2023/02/28 01:14:30;;;;;;;61.40;8.48;;;;;;;;;;5050807;28;20029;-39
2023/02/28 01:16:57;;;;;;;45.65;8.13;;;;;;;;;;5030585;28;20131;-40
2023/02/28 01:19:24;;;;;;;63.40;8.85;;;;;;;;;;5029725;28;20121;-40
2023/02/28 01:21:51;;;;;;;61.85;9.07;;;;;;;;;;5040090;28;20025;-42
2023/02/28 01:24:18;;;;;;;62.03;9.68;;;;;;;;;;5035878;28;20756;-42
2023/02/28 01:26:45;;;;;;;71.07;8.40;;;;;;;;;;5033201;28;20033;-40
2023/02/28 01:29:12;;;;;;;47.25;7.95;;;;;;;;;;5044329;28;20063;-39
2023/02/28 01:31:39;;;;;;;55.38;8.73;;;;;;;;;;5037171;28;20398;-42
2023/02/28 01:34:06;;;;;;;59.58;8.85;;;;;;;;;;5050222;28;20154;-41
2023/02/28 01:36:33;;;;;;;62.35;9.15;;;;;;;;;;5050588;28;20029;-43
2023/02/28 01:39:00;;;;;;;59.05;8.40;;;;;;;;;;5050021;28;20029;-41
2023/02/28 01:41:29;;;;;;;56.60;7.72;;;;;;;;;;5049641;28;20032;-41
2023/02/28 01:44:19;;;;;;;55.08;8.55;;;;;;;;;;5049995;28;20024;-43
2023/02/28 01:46:46;;;;;;;75.95;11.48;;;;;;;;;;5010185;28;20040;-44
2023/02/28 01:49:16;;;;;;;93.22;22.05;;;;;;;;;;5050057;28;20475;-46
2023/02/28 01:51:54;;;;;;;81.95;14.98;;;;;;;;;;5049992;28;20036;-41
2023/02/28 01:54:29;;;;;;;101.38;17.65;;;;;;;;;;5050005;28;20025;-40
2023/02/28 01:57:08;;;;;;;113.38;24.83;;;;;;;;;;5049721;28;20433;-41
2023/02/28 01:59:40;;;;;;;87.05;18.20;;;;;;;;;;5049749;28;20500;-44
2023/02/28 02:02:07;;;;;;;94.93;19.02;;;;;;;;;;5049586;28;20057;-41
2023/02/28 02:04:38;;;;;;;85.03;18.25;;;;;;;;;;5049139;28;20139;-41
2023/02/28 02:07:06;;;;;;;97.20;18.43;;;;;;;;;;5049117;28;20790;-42
2023/02/28 02:09:34;;;;;;;93.72;18.20;;;;;;;;;;5047319;28;20021;-46
2023/02/28 02:12:07;;;;;;;78.25;13.45;;;;;;;;;;5030592;28;20025;-43
2023/02/28 02:15:09;;;;;;;79.22;14.95;;;;;;;;;;5048565;28;20036;-42
2023/02/28 02:17:52;;;;;;;69.38;13.82;;;;;;;;;;4948725;29;20039;-44
2023/02/28 02:20:21;;;;;;;66.72;14.25;;;;;;;;;;5038685;28;20047;-43
2023/02/28 02:22:48;;;;;;;66.68;12.65;;;;;;;;;;5049646;28;20052;-44
2023/02/28 02:25:30;;;;;;;54.47;11.38;;;;;;;;;;5048622;28;20700;-43
2023/02/28 02:28:06;;;;;;;51.65;10.68;;;;;;;;;;5049383;28;20063;-43
2023/02/28 02:30:42;;;;;;;61.25;11.65;;;;;;;;;;5049075;28;20459;-45
2023/02/28 02:33:18;;;;;;;54.40;11.10;;;;;;;;;;5040577;28;20076;-45
2023/02/28 02:35:50;;;;;;;45.65;8.23;;;;;;;;;;5051486;28;20463;-45
2023/02/28 02:38:28;;;;;;;34.65;7.13;;;;;;;;;;5051234;28;20048;-43
2023/02/28 02:41:15;;;;;;;49.15;7.75;;;;;;;;;;5053141;28;20036;-41
2023/02/28 02:43:48;;;;;;;48.38;7.15;;;;;;;;;;5007576;28;20060;-43
2023/02/28 02:46:17;;;;;;;48.78;6.30;;;;;;;;;;5043878;28;20040;-41
2023/02/28 02:48:47;;;;;;;55.92;8.07;;;;;;;;;;5042593;28;20021;-46
2023/02/28 02:51:17;;;;;;;56.17;7.07;;;;;;;;;;5046670;28;20041;-42
2023/02/28 02:53:49;;;;;;;59.45;7.90;;;;;;;;;;5048590;28;20032;-43
2023/02/28 02:56:18;;;;;;;65.63;7.13;;;;;;;;;;5033594;28;20048;-43
2023/02/28 02:58:45;;;;;;;41.72;6.97;;;;;;;;;;5052178;28;20085;-42
2023/02/28 03:01:14;;;;;;;49.03;6.40;;;;;;;;;;5049922;28;20024;-41
2023/02/28 03:03:41;;;;;;;50.83;6.47;;;;;;;;;;5052660;28;20115;-41
2023/02/28 03:06:08;;;;;;;35.00;4.50;;;;;;;;;;5052194;28;20032;-45
2023/02/28 03:08:37;;;;;;;33.30;4.47;;;;;;;;;;5052570;28;20474;-44
2023/02/28 03:11:05;;;;;;;32.35;4.47;;;;;;;;;;5049780;28;20051;-43
2023/02/28 03:13:35;;;;;;;29.73;4.47;;;;;;;;;;5052350;28;20028;-40
2023/02/28 03:16:20;;;;;;;26.83;4.05;;;;;;;;;;5052338;28;20025;-43
2023/02/28 03:18:47;;;;;;;32.90;4.22;;;;;;;;;;5050213;28;20115;-43
2023/02/28 03:21:19;;;;;;;34.28;3.75;;;;;;;;;;5052301;28;20033;-43
2023/02/28 03:23:52;;;;;;;25.02;4.53;;;;;;;;;;5050065;28;20070;-43
2023/02/28 03:26:18;;;;;;;;;;;;;;;;;;5052442;28;20025;-43
2023/02/28 03:29:05;;;;;;;18.15;2.88;;;;;;;;;;5052164;28;20448;-43
2023/02/28 03:31:44;;;;;;;29.02;3.70;;;;;;;;;;5050566;28;20029;-44
2023/02/28 03:34:14;;;;;;;25.13;3.67;;;;;;;;;;5050492;28;20041;-41
2023/02/28 03:36:47;;;;;;;24.23;3.42;;;;;;;;;;5051763;28;20056;-43
2023/02/28 03:39:17;;;;;;;23.25;3.50;;;;;;;;;;5052235;28;20178;-40
2023/02/28 03:42:03;;;;;;;23.63;3.63;;;;;;;;;;5052793;28;20037;-40
2023/02/28 03:44:30;;;;;;;19.67;3.75;;;;;;;;;;5051455;28;20029;-41
2023/02/28 03:47:03;;;;;;;28.88;4.55;;;;;;;;;;5053130;28;20564;-40
2023/02/28 03:49:34;;;;;;;31.90;4.45;;;;;;;;;;5052985;28;20024;-40
2023/02/28 03:52:02;;;;;;;36.63;4.55;;;;;;;;;;5053038;28;20044;-40
2023/02/28 03:54:31;;;;;;;27.42;3.83;;;;;;;;;;5052940;28;20025;-41
2023/02/28 03:57:06;;;;;;;23.13;3.50;;;;;;;;;;5052884;28;20055;-40
2023/02/28 03:59:45;;;;;;;22.20;3.38;;;;;;;;;;5034905;28;20415;-40
2023/02/28 04:02:12;;;;;;;18.77;3.17;;;;;;;;;;5052986;28;20383;-40
2023/02/28 04:04:44;;;;;;;23.27;3.35;;;;;;;;;;5034862;28;20039;-40
2023/02/28 04:07:11;;;;;;;;;;;;;;;;;;5053290;28;20040;-40
2023/02/28 04:09:38;;;;;;;17.92;2.95;;;;;;;;;;5052779;28;20405;-40
2023/02/28 04:12:05;;;;;;;21.88;3.45;;;;;;;;;;5052710;28;20372;-40
2023/02/28 04:14:32;;;;;;;12.45;2.78;;;;;;;;;;5052719;28;20025;-40
2023/02/28 04:16:59;;;;;;;23.80;3.28;;;;;;;;;;5052607;28;20067;-40
2023/02/28 04:19:26;;;;;;;17.85;2.75;;;;;;;;;;5034567;28;20036;-41
2023/02/28 04:21:54;;;;;;;16.40;2.50;;;;;;;;;;5052541;28;20368;-40
2023/02/28 04:24:25;;;;;;;16.73;2.90;;;;;;;;;;5052518;28;20116;-40
2023/02/28 04:26:53;;;;;;;20.05;3.00;;;;;;;;;;5052501;28;20029;-40
2023/02/28 04:29:22;;;;;;;23.10;3.47;;;;;;;;;;5052438;28;20032;-40
2023/02/28 04:31:49;;;;;;;23.25;3.85;;;;;;;;;;5052055;28;20487;-40
2023/02/28 04:34:18;;;;;;;21.63;3.72;;;;;;;;;;5052253;28;20075;-40
2023/02/28 04:36:45;;;;;;;23.10;3.03;;;;;;;;;;5052118;28;20033;-40
2023/02/28 04:39:13;;;;;;;26.17;2.97;;;;;;;;;;5052092;28;20075;-40
2023/02/28 04:41:40;;;;;;;21.85;2.83;;;;;;;;;;5052182;28;20044;-40
2023/02/28 04:44:07;;;;;;;28.30;3.53;;;;;;;;;;5052140;28;20029;-40
2023/02/28 04:46:34;;;;;;;19.85;3.20;;;;;;;;;;5052130;28;20394;-40
2023/02/28 04:49:01;;;;;;;19.63;3.28;;;;;;;;;;5051956;28;20437;-40
2023/02/28 04:51:28;;;;;;;24.77;3.17;;;;;;;;;;5051941;28;20545;-40
2023/02/28 04:53:55;;;;;;;17.60;2.65;;;;;;;;;;5051871;28;20104;-40
2023/02/28 04:56:22;;;;;;;11.48;2.67;;;;;;;;;;5051439;28;20829;-40
2023/02/28 04:58:51;;;;;;;19.90;2.92;;;;;;;;;;5051889;28;20032;-40
2023/02/28 05:01:26;;;;;;;16.45;2.75;;;;;;;;;;5051586;28;20036;-40
2023/02/28 05:03:54;;;;;;;15.52;2.95;;;;;;;;;;5033799;28;20025;-40
2023/02/28 05:06:23;;;;;;;21.60;3.33;;;;;;;;;;5051786;28;20032;-40
2023/02/28 05:08:50;;;;;;;12.43;2.00;;;;;;;;;;5051557;28;20036;-40
2023/02/28 05:11:17;;;;;;;11.25;2.53;;;;;;;;;;5033565;28;20040;-40
2023/02/28 05:13:44;;;;;;;16.42;2.53;;;;;;;;;;5051592;28;20025;-40
2023/02/28 05:16:11;;;;;;;14.10;2.63;;;;;;;;;;5051535;28;20021;-40
2023/02/28 05:18:39;;;;;;;17.48;2.83;;;;;;;;;;5051533;28;20036;-40
2023/02/28 05:21:06;;;;;;;14.52;2.90;;;;;;;;;;5051422;28;20032;-40
2023/02/28 05:23:33;;;;;;;12.55;2.95;;;;;;;;;;5051436;28;20455;-40
2023/02/28 05:26:00;;;;;;;22.40;3.00;;;;;;;;;;5051397;28;20056;-40
2023/02/28 05:28:27;;;;;;;18.20;2.88;;;;;;;;;;5051206;28;20037;-43
2023/02/28 05:30:54;;;;;;;20.40;4.47;;;;;;;;;;5051178;28;20463;-43
2023/02/28 05:33:21;;;;;;;22.48;3.30;;;;;;;;;;5051141;28;20091;-44
2023/02/28 05:35:48;;;;;;;21.83;3.80;;;;;;;;;;5033316;28;20064;-43
2023/02/28 05:38:16;;;;;;;20.08;4.22;;;;;;;;;;5051160;28;20020;-43
2023/02/28 05:40:42;;;;;;;21.92;3.78;;;;;;;;;;5051163;28;20029;-43
2023/02/28 05:43:11;;;;;;;28.20;3.50;;;;;;;;;;5051080;28;20025;-40
2023/02/28 05:45:39;;;;;;;21.65;3.70;;;;;;;;;;5051123;28;20036;-40
2023/02/28 05:48:06;;;;;;;18.40;2.95;;;;;;;;;;5051092;28;20487;-40
2023/02/28 05:50:33;;;;;;;21.95;3.90;;;;;;;;;;5051042;28;20052;-40
2023/02/28 05:53:00;;;;;;;14.40;3.13;;;;;;;;;;5051016;28;20036;-40
2023/02/28 05:55:27;;;;;;;19.17;3.72;;;;;;;;;;5050824;28;20041;-40
2023/02/28 05:57:54;;;;;;;18.65;3.28;;;;;;;;;;5050967;28;20860;-40
2023/02/28 06:00:21;;;;;;;21.02;3.60;;;;;;;;;;5032933;28;20693;-40
2023/02/28 06:02:48;;;;;;;18.63;3.50;;;;;;;;;;5049238;28;20029;-43
2023/02/28 06:05:16;;;;;;;23.33;3.53;;;;;;;;;;5050625;28;20040;-43
2023/02/28 06:07:44;;;;;;;23.17;3.33;;;;;;;;;;5050797;28;20028;-43
2023/02/28 06:10:12;;;;;;;25.35;4.25;;;;;;;;;;5054974;28;20052;-43
2023/02/28 06:12:41;;;;;;;27.77;4.22;;;;;;;;;;5054949;28;20402;-43
2023/02/28 06:15:08;;;;;;;31.50;4.10;;;;;;;;;;5054780;28;20056;-43
2023/02/28 06:17:35;;;;;;;24.25;3.85;;;;;;;;;;5054899;28;20040;-43
2023/02/28 06:20:02;;;;;;;29.33;4.07;;;;;;;;;;5054896;28;20025;-43
2023/02/28 06:22:29;;;;;;;19.35;3.55;;;;;;;;;;5054844;28;20075;-43
2023/02/28 06:24:57;;;;;;;27.05;4.05;;;;;;;;;;5054598;28;20033;-43
2023/02/28 06:27:24;;;;;;;24.30;3.85;;;;;;;;;;5054565;28;20069;-43
2023/02/28 06:29:57;;;;;;;26.67;3.90;;;;;;;;;;5054539;28;20025;-43
2023/02/28 06:32:24;;;;;;;15.95;3.50;;;;;;;;;;5054139;28;20091;-40
2023/02/28 06:34:51;;;;;;;15.98;3.22;;;;;;;;;;5054533;28;20061;-40
2023/02/28 06:37:18;;;;;;;22.05;3.97;;;;;;;;;;5054375;28;20076;-40
2023/02/28 06:39:45;;;;;;;24.88;4.30;;;;;;;;;;5054360;28;20037;-40
2023/02/28 06:42:12;;;;;;;28.98;4.28;;;;;;;;;;5054303;28;20024;-40
2023/02/28 06:44:39;;;;;;;28.55;4.15;;;;;;;;;;5054323;28;20025;-40
2023/02/28 06:47:07;;;;;;;26.83;4.10;;;;;;;;;;5053883;28;20096;-41
2023/02/28 06:49:35;;;;;;;19.55;3.05;;;;;;;;;;5054157;28;20063;-40
2023/02/28 06:52:02;;;;;;;23.05;3.72;;;;;;;;;;5054184;28;20033;-40
2023/02/28 06:54:29;;;;;;;20.98;3.60;;;;;;;;;;5054188;28;20120;-43
2023/02/28 06:56:56;;;;;;;18.30;3.90;;;;;;;;;;5053983;28;20416;-43
2023/02/28 06:59:23;;;;;;;25.35;4.05;;;;;;;;;;5054057;28;20029;-43
2023/02/28 07:01:50;;;;;;;27.55;3.90;;;;;;;;;;5053957;28;20035;-45
2023/02/28 07:04:17;;;;;;;17.67;3.78;;;;;;;;;;5054058;28;20044;-43
2023/02/28 07:06:44;;;;;;;22.35;3.80;;;;;;;;;;5053953;28;20033;-43
2023/02/28 07:09:11;;;;;;;18.75;4.15;;;;;;;;;;5053827;28;20087;-43
2023/02/28 07:11:38;;;;;;;24.42;3.78;;;;;;;;;;5053889;28;20028;-43
2023/02/28 07:14:05;;;;;;;21.80;4.00;;;;;;;;;;5053818;28;20061;-43
2023/02/28 07:16:32;;;;;;;20.08;3.90;;;;;;;;;;5053719;28;20025;-43
2023/02/28 07:18:59;;;;;;;20.63;4.07;;;;;;;;;;5053380;28;20104;-43
2023/02/28 07:21:26;;;;;;;19.65;3.90;;;;;;;;;;5053555;28;20033;-43
2023/02/28 07:23:53;;;;;;;21.52;3.60;;;;;;;;;;5053578;28;20021;-43
2023/02/28 07:26:20;;;;;;;19.75;3.90;;;;;;;;;;5053655;28;20029;-43
2023/02/28 07:28:48;;;;;;;24.05;4.00;;;;;;;;;;5053447;28;20495;-43
2023/02/28 07:31:15;;;;;;;25.45;4.00;;;;;;;;;;5053506;28;20100;-43
2023/02/28 07:33:42;;;;;;;16.15;3.83;;;;;;;;;;5053315;28;20048;-43
2023/02/28 07:36:18;;;;;;;22.65;3.83;;;;;;;;;;5053170;28;20032;-43
2023/02/28 07:38:47;;;;;;;18.23;3.70;;;;;;;;;;5053388;28;20491;-43
2023/02/28 07:41:15;;;;;;;22.95;4.20;;;;;;;;;;5053178;28;20128;-43
2023/02/28 07:43:42;;;;;;;22.73;3.80;;;;;;;;;;5053299;28;20096;-43
2023/02/28 07:46:11;;;;;;;17.90;3.78;;;;;;;;;;5053182;28;20052;-43
2023/02/28 07:48:38;;;;;;;18.92;4.28;;;;;;;;;;5053206;28;20052;-43
2023/02/28 07:51:05;;;;;;;29.80;4.15;;;;;;;;;;5052977;28;20068;-43
2023/02/28 07:53:33;;;;;;;28.17;4.70;;;;;;;;;;5053112;28;20025;-43
2023/02/28 07:56:00;;;;;;;28.23;4.55;;;;;;;;;;5053102;28;20017;-43
2023/02/28 07:58:28;;;;;;;24.75;4.88;;;;;;;;;;5052868;28;20067;-43
2023/02/28 08:00:55;;;;;;;21.65;4.28;;;;;;;;;;5052324;28;20056;-43
2023/02/28 08:03:23;;;;;;;29.15;4.35;;;;;;;;;;5052997;28;20021;-43
2023/02/28 08:05:52;;;;;;;19.25;3.75;;;;;;;;;;5052911;28;20082;-43
2023/02/28 08:08:19;;;;;;;26.55;3.90;;;;;;;;;;5053053;28;20175;-43
2023/02/28 08:10:46;;;;;;;25.52;4.07;;;;;;;;;;5052611;28;20028;-44
2023/02/28 08:13:13;;;;;;;18.48;4.28;;;;;;;;;;5052743;28;20032;-43
2023/02/28 08:15:42;;;;;;;23.80;4.60;;;;;;;;;;5150804;22;20085;-38
2023/02/28 08:18:09;;;;;;;18.95;4.53;;;;;;;;;;5053179;28;20041;-38
2023/02/28 08:20:36;;;;;;;22.23;4.25;;;;;;;;;;5052847;28;20025;-38
2023/02/28 08:23:03;;;;;;;24.63;4.50;;;;;;;;;;5052653;28;20017;-39
2023/02/28 08:25:30;;;;;;;28.85;4.75;;;;;;;;;;5052038;28;20040;-38
2023/02/28 08:27:57;;;;;;;20.67;3.42;;;;;;;;;;5052456;28;20029;-38
2023/02/28 08:30:24;;;;;;;28.25;4.95;;;;;;;;;;5051955;28;20032;-38
2023/02/28 08:32:51;;;;;;;24.65;4.35;;;;;;;;;;5052167;28;20032;-38
2023/02/28 08:35:18;;;;;;;21.10;4.20;;;;;;;;;;5052000;28;20478;-38
2023/02/28 08:37:45;;;;;;;20.23;4.10;;;;;;;;;;5052094;28;20060;-38
2023/02/28 08:40:17;;;;;;;19.23;4.47;;;;;;;;;;5052266;28;20025;-38
2023/02/28 08:42:47;;;;;;;30.08;4.53;;;;;;;;;;5051993;28;20029;-38
2023/02/28 08:45:15;;;;;;;19.50;4.10;;;;;;;;;;5052037;28;20028;-38
2023/02/28 08:47:42;;;;;;;25.42;4.43;;;;;;;;;;5051974;28;20394;-38
2023/02/28 08:50:09;;;;;;;24.65;4.40;;;;;;;;;;5052012;28;20025;-38
2023/02/28 08:52:38;;;;;;;24.13;4.57;;;;;;;;;;5034062;28;20029;-38
2023/02/28 08:55:05;;;;;;;20.92;4.18;;;;;;;;;;5051721;28;20112;-38
2023/02/28 08:57:32;;;;;;;30.50;4.40;;;;;;;;;;5051844;28;20044;-38
2023/02/28 08:59:59;;;;;;;27.55;4.95;;;;;;;;;;5051818;28;20040;-38
2023/02/28 09:02:26;;;;;;;26.80;4.70;;;;;;;;;;5051784;28;20025;-38
2023/02/28 09:04:53;;;;;;;40.53;5.93;;;;;;;;;;5051737;28;20048;-38
2023/02/28 09:07:20;;;;;;;45.35;6.20;;;;;;;;;;5051639;28;20020;-38
2023/02/28 09:09:57;;;;;;;42.78;6.43;;;;;;;;;;5051700;28;20498;-38
2023/02/28 09:12:28;;;;;;;32.08;6.18;;;;;;;;;;5051484;28;20056;-37
2023/02/28 09:14:55;;;;;;;39.53;5.88;;;;;;;;;;5051383;28;20174;-38
2023/02/28 09:17:22;;;;;;;27.90;4.75;;;;;;;;;;5051483;28;20033;-39
2023/02/28 09:19:50;;;;;;;30.58;5.38;;;;;;;;;;5051631;28;20040;-38
2023/02/28 09:22:17;;;;;;;41.50;5.30;;;;;;;;;;5051479;28;20070;-37
2023/02/28 09:24:44;;;;;;;31.80;5.50;;;;;;;;;;5051400;28;20024;-38
2023/02/28 09:27:11;;;;;;;24.27;5.03;;;;;;;;;;5051364;28;20025;-38
2023/02/28 09:29:38;;;;;;;37.88;5.85;;;;;;;;;;5051274;28;20029;-36
2023/02/28 09:32:07;;;;;;;38.28;6.10;;;;;;;;;;5051277;28;20029;-35
2023/02/28 09:34:36;;;;;;;40.83;6.25;;;;;;;;;;5051089;28;20029;-35
2023/02/28 09:37:03;;;;;;;36.90;5.45;;;;;;;;;;5051035;28;20029;-36
2023/02/28 09:39:31;;;;;;;53.55;7.03;;;;;;;;;;5051205;28;20017;-36
2023/02/28 09:41:58;;;;;;;35.65;6.68;;;;;;;;;;5050951;28;20398;-36
2023/02/28 09:44:31;;;;;;;48.85;6.85;;;;;;;;;;5051049;28;20056;-36
2023/02/28 09:46:59;;;;;;;34.72;6.95;;;;;;;;;;5050758;28;20120;-37
2023/02/28 09:49:30;;;;;;;100.30;11.32;;;;;;;;;;5051064;28;20506;-35
2023/02/28 09:52:05;;;;;;;72.57;9.05;;;;;;;;;;5050982;28;20051;-36
2023/02/28 09:54:33;;;;;;;54.08;6.93;;;;;;;;;;5050922;28;20079;-36
2023/02/28 09:57:15;;;;;;;64.30;7.80;;;;;;;;;;5051018;28;20100;-36
2023/02/28 10:00:12;;;;;;;55.58;6.97;;;;;;;;;;5051027;28;20017;-35
2023/02/28 10:03:00;;;;;;;59.85;9.27;;;;;;;;;;5034476;28;20045;-36
2023/02/28 10:05:47;;;;;;;64.15;7.72;;;;;;;;;;5050776;28;20025;-36
2023/02/28 10:08:17;;;;;;;81.70;9.10;;;;;;;;;;5010247;28;20068;-36
2023/02/28 10:10:50;;;;;;;81.55;10.73;;;;;;;;;;5050723;28;20036;-36
2023/02/28 10:13:37;;;;;;;111.25;12.95;;;;;;;;;;5050900;28;20033;-36
2023/02/28 10:16:12;;;;;;;120.32;13.95;;;;;;;;;;5049132;28;20110;-38
2023/02/28 10:18:45;;;;;;;238.27;22.45;;;;;;;;;;5040912;28;20029;-36
2023/02/28 10:21:18;;;;;;;252.68;24.48;;;;;;;;;;5030230;28;20025;-38
2023/02/28 10:23:47;;;;;;;312.13;28.48;;;;;;;;;;5045287;28;20025;-41
2023/02/28 10:26:18;;;;;;;287.13;27.13;;;;;;;;;;5033938;28;20057;-49
2023/02/28 10:28:45;;;;;;;252.82;25.98;;;;;;;;;;5045558;28;20140;-43
2023/02/28 10:31:16;;;;;;;247.55;26.17;;;;;;;;;;5048769;28;20079;-44
2023/02/28 10:33:43;;;;;;;247.82;26.67;;;;;;;;;;5048219;28;20483;-44
2023/02/28 10:36:13;;;;;;;226.35;23.15;;;;;;;;;;5047452;28;20040;-47
2023/02/28 10:38:41;;;;;;;280.70;28.58;;;;;;;;;;5042264;28;20059;-43
2023/02/28 10:41:12;;;;;;;290.30;30.15;;;;;;;;;;5048530;28;20021;-47
2023/02/28 10:43:40;;;;;;;385.42;40.88;;;;;;;;;;5049433;28;20052;-45
2023/02/28 10:46:10;;;;;;;321.67;34.92;;;;;;;;;;5043382;28;20068;-46
2023/02/28 10:48:42;;;;;;;235.15;28.20;;;;;;;;;;5045307;28;20039;-39
2023/02/28 10:51:11;;;;;;;164.00;18.92;;;;;;;;;;5045454;28;20099;-43
2023/02/28 10:53:47;;;;;;;137.15;16.55;;;;;;;;;;5049344;28;20023;-41
2023/02/28 10:56:14;;;;;;;195.40;19.40;;;;;;;;;;5050895;28;20445;-40
2023/02/28 10:58:52;;;;;;;179.35;19.58;;;;;;;;;;5050287;28;20029;-44
2023/02/28 11:01:21;;;;;;;153.85;16.98;;;;;;;;;;5041339;28;20033;-44
2023/02/28 11:03:48;;;;;;;124.47;15.23;;;;;;;;;;5048556;28;20036;-49
2023/02/28 11:06:23;;;;;;;116.82;13.85;;;;;;;;;;5051450;28;20064;-39
2023/02/28 11:08:54;;;;;;;107.65;12.93;;;;;;;;;;5048265;28;20053;-46
2023/02/28 11:11:23;;;;;;;90.77;11.60;;;;;;;;;;5049838;28;20017;-42
2023/02/28 11:13:52;;;;;;;86.93;11.32;;;;;;;;;;5046826;28;20029;-40
2023/02/28 11:16:19;;;;;;;78.07;9.50;;;;;;;;;;5052165;28;20060;-41
2023/02/28 11:18:54;;;;;;;64.63;8.90;;;;;;;;;;5030080;28;21113;-44
2023/02/28 11:21:28;;;;;;;59.85;8.63;;;;;;;;;;5051337;28;20402;-44
2023/02/28 11:24:15;;;;;;;59.95;7.45;;;;;;;;;;5047679;28;20040;-45
2023/02/28 11:26:43;;;;;;;55.63;7.63;;;;;;;;;;5049027;28;20057;-45
2023/02/28 11:29:19;;;;;;;49.28;7.60;;;;;;;;;;5047252;28;20167;-41
2023/02/28 11:32:04;;;;;;;50.92;6.80;;;;;;;;;;5052796;28;20818;-43
2023/02/28 11:34:31;;;;;;;44.20;7.45;;;;;;;;;;5051953;28;20064;-44
2023/02/28 11:36:59;;;;;;;49.67;7.53;;;;;;;;;;5046185;28;20056;-43
2023/02/28 11:39:27;;;;;;;50.47;6.60;;;;;;;;;;5051042;28;20120;-46
2023/02/28 11:42:03;;;;;;;41.63;5.93;;;;;;;;;;5050303;28;20383;-43
2023/02/28 11:44:51;;;;;;;33.10;6.00;;;;;;;;;;5052157;28;20056;-44
2023/02/28 11:47:30;;;;;;;48.92;5.85;;;;;;;;;;5048903;28;20505;-43
2023/02/28 11:49:59;;;;;;;38.10;5.80;;;;;;;;;;5048984;28;20029;-47
2023/02/28 11:52:49;;;;;;;40.30;5.07;;;;;;;;;;5049255;28;20036;-42
2023/02/28 11:55:49;;;;;;;47.08;6.00;;;;;;;;;;5050201;28;20124;-40
2023/02/28 11:58:27;;;;;;;32.58;5.20;;;;;;;;;;4991200;28;20060;-44
2023/02/28 12:01:12;;;;;;;35.95;5.10;;;;;;;;;;5047726;28;20032;-44
2023/02/28 12:03:41;;;;;;;49.90;6.20;;;;;;;;;;5050323;28;20024;-47
2023/02/28 12:06:32;;;;;;;34.70;6.57;;;;;;;;;;5048617;28;20040;-45
2023/02/28 12:09:12;;;;;;;38.53;5.95;;;;;;;;;;5050183;28;20043;-45
2023/02/28 12:11:42;;;;;;;46.25;6.45;;;;;;;;;;5048363;28;20037;-44
2023/02/28 12:14:22;;;;;;;28.92;4.80;;;;;;;;;;5049141;28;20044;-48
2023/02/28 12:16:52;;;;;;;32.45;5.50;;;;;;;;;;5048730;28;20045;-42
2023/02/28 12:19:18;;;;;;;31.58;5.50;;;;;;;;;;5045737;28;20025;-45
2023/02/28 12:22:05;;;;;;;36.60;5.10;;;;;;;;;;5041990;28;20076;-43
2023/02/28 12:24:51;;;;;;;35.08;6.30;;;;;;;;;;5032250;28;20044;-49
2023/02/28 12:27:20;;;;;;;45.70;6.18;;;;;;;;;;5048633;28;20367;-46
2023/02/28 12:29:58;;;;;;;39.20;6.15;;;;;;;;;;5052346;28;20140;-45
2023/02/28 12:32:25;;;;;;;42.58;6.10;;;;;;;;;;5050978;28;20498;-45
2023/02/28 12:34:58;;;;;;;58.08;6.40;;;;;;;;;;5052414;28;20741;-45
2023/02/28 12:37:28;;;;;;;43.42;6.55;;;;;;;;;;5050535;28;20028;-44
2023/02/28 12:40:06;;;;;;;45.80;6.80;;;;;;;;;;5052421;28;20099;-46
2023/02/28 12:42:35;;;;;;;28.25;6.13;;;;;;;;;;5037710;28;20028;-46
2023/02/28 12:45:11;;;;;;;26.90;5.00;;;;;;;;;;5040111;28;20033;-44
2023/02/28 12:47:39;;;;;;;47.00;5.95;;;;;;;;;;5041920;28;20037;-49
2023/02/28 12:50:10;;;;;;;47.72;5.40;;;;;;;;;;5040689;28;20032;-45
2023/02/28 12:52:56;;;;;;;35.00;5.15;;;;;;;;;;5025751;28;20053;-46
2023/02/28 12:55:28;;;;;;;43.65;6.60;;;;;;;;;;5042418;28;20024;-47
2023/02/28 12:58:15;;;;;;;41.40;6.25;;;;;;;;;;5041697;28;20025;-47
2023/02/28 13:00:52;;;;;;;40.90;6.65;;;;;;;;;;5039703;28;20149;-46
2023/02/28 13:03:33;;;;;;;28.95;5.97;;;;;;;;;;5040711;28;20784;-45
2023/02/28 13:06:00;;;;;;;65.82;8.13;;;;;;;;;;5042358;28;20064;-44
2023/02/28 13:08:34;;;;;;;34.72;5.88;;;;;;;;;;5040441;28;20041;-46
2023/02/28 13:11:01;;;;;;;28.42;5.22;;;;;;;;;;5022442;28;20114;-47
2023/02/28 13:13:32;;;;;;;34.60;6.40;;;;;;;;;;5042021;28;20096;-47
2023/02/28 13:16:06;;;;;;;31.55;6.07;;;;;;;;;;5041861;28;20096;-45
2023/02/28 13:18:40;;;;;;;37.33;6.15;;;;;;;;;;5023269;28;20419;-45
2023/02/28 13:21:11;;;;;;;31.17;5.90;;;;;;;;;;5042306;28;20017;-47
2023/02/28 13:23:58;;;;;;;57.53;6.90;;;;;;;;;;5041816;28;20489;-49
2023/02/28 13:26:31;;;;;;;42.92;6.63;;;;;;;;;;5041951;28;20036;-46
2023/02/28 13:28:57;;;;;;;38.28;6.35;;;;;;;;;;5041800;28;20025;-45
2023/02/28 13:31:25;;;;;;;42.92;6.20;;;;;;;;;;5051481;28;20055;-45
2023/02/28 13:33:53;;;;;;;41.10;7.13;;;;;;;;;;5051533;28;20025;-44
2023/02/28 13:36:22;;;;;;;42.10;6.45;;;;;;;;;;5050666;28;20047;-47
2023/02/28 13:39:03;;;;;;;41.53;6.30;;;;;;;;;;5045569;28;20037;-45
2023/02/28 13:41:30;;;;;;;48.97;7.25;;;;;;;;;;5040462;28;20159;-48
2023/02/28 13:44:17;;;;;;;44.15;6.90;;;;;;;;;;5038462;28;20040;-52
2023/02/28 13:46:50;;;;;;;39.25;7.05;;;;;;;;;;5031860;28;20029;-45
2023/02/28 13:49:32;;;;;;;48.75;6.30;;;;;;;;;;5047728;28;20422;-45
2023/02/28 13:52:16;;;;;;;35.03;5.53;;;;;;;;;;5017355;28;20109;-46
2023/02/28 13:54:55;;;;;;;36.05;6.00;;;;;;;;;;5023466;28;20505;-41
2023/02/28 13:57:34;;;;;;;49.03;6.85;;;;;;;;;;5047716;28;20032;-43
2023/02/28 14:00:20;;;;;;;46.25;6.97;;;;;;;;;;5048073;28;20047;-42
2023/02/28 14:02:49;;;;;;;40.20;6.38;;;;;;;;;;5032696;28;20026;-42
2023/02/28 14:05:18;;;;;;;44.75;6.10;;;;;;;;;;5039382;28;20528;-45
2023/02/28 14:07:55;;;;;;;32.10;6.05;;;;;;;;;;5049634;28;20037;-41
2023/02/28 14:10:25;;;;;;;54.25;7.35;;;;;;;;;;5048666;28;20038;-45
2023/02/28 14:12:54;;;;;;;45.90;7.05;;;;;;;;;;5041710;28;20029;-45
2023/02/28 14:15:41;;;;;;;54.67;7.57;;;;;;;;;;5044815;28;20044;-47
2023/02/28 14:18:14;;;;;;;47.08;7.32;;;;;;;;;;5049418;28;20484;-62
2023/02/28 14:20:42;;;;;;;44.38;7.45;;;;;;;;;;5046095;28;20024;-62
2023/02/28 14:23:33;;;;;;;49.17;7.70;;;;;;;;;;5049139;28;20060;-51
2023/02/28 14:26:06;;;;;;;50.92;6.82;;;;;;;;;;5049274;28;20036;-57
2023/02/28 14:28:51;;;;;;;59.17;8.55;;;;;;;;;;5040703;28;20483;-50
2023/02/28 14:31:30;;;;;;;60.45;7.82;;;;;;;;;;5051011;28;20032;-52
2023/02/28 14:34:06;;;;;;;64.53;8.07;;;;;;;;;;5036450;28;20053;-51
2023/02/28 14:36:36;;;;;;;48.78;7.25;;;;;;;;;;5053451;28;20501;-50
2023/02/28 14:39:30;;;;;;;48.83;7.40;;;;;;;;;;5052273;28;20025;-54
2023/02/28 14:42:07;;;;;;;45.05;7.47;;;;;;;;;;5044915;28;20060;-57
2023/02/28 14:44:37;;;;;;;53.22;7.97;;;;;;;;;;5041813;28;20034;-57
2023/02/28 14:47:06;;;;;;;47.67;7.60;;;;;;;;;;5043879;28;20048;-56